createdAt,value
2022-11-02T00:08:37.574Z,100
2022-11-02T00:18:14.227Z,100
2022-11-02T00:27:50.754Z,100
2022-11-02T00:37:27.333Z,100
2022-11-02T00:47:03.877Z,100
2022-11-02T00:56:40.709Z,100
2022-11-02T01:06:17.408Z,100
2022-11-02T01:15:54.056Z,100
2022-11-02T01:25:30.756Z,100
2022-11-02T01:35:07.738Z,100
2022-11-02T01:44:45.558Z,100
2022-11-02T01:54:22.778Z,100
2022-11-02T02:13:37.390Z,100
2022-11-02T02:23:14.472Z,100
2022-11-02T02:32:51.749Z,100
2022-11-02T02:42:28.970Z,100
2022-11-02T02:52:06.185Z,100
2022-11-02T03:01:43.317Z,100
2022-11-02T03:11:20.048Z,100
2022-11-02T03:20:56.787Z,100
2022-11-02T03:30:33.723Z,100
2022-11-02T03:40:10.439Z,100
2022-11-02T03:49:47.068Z,100
2022-11-02T03:59:23.913Z,100
2022-11-02T04:09:00.471Z,100
2022-11-02T04:18:37.290Z,100
2022-11-02T04:28:14.195Z,100
2022-11-02T04:47:27.093Z,100
2022-11-02T04:57:04.052Z,100
2022-11-02T05:06:40.912Z,100
2022-11-02T05:16:17.125Z,100
2022-11-02T05:25:53.477Z,100
2022-11-02T05:35:30.414Z,100
2022-11-02T05:54:45.553Z,100
2022-11-02T06:04:23.087Z,100
2022-11-02T06:14:00.542Z,100
2022-11-02T06:23:37.597Z,100
2022-11-02T06:33:14.794Z,100
2022-11-02T06:43:03.560Z,100
2022-11-02T06:52:30.045Z,100
2022-11-02T07:02:09.551Z,94.03
2022-11-02T07:11:47.701Z,93.63
2022-11-02T07:21:25.603Z,92.14
2022-11-02T07:31:03.687Z,89.9
2022-11-02T07:40:41.915Z,87.72
2022-11-02T07:50:20.037Z,86.01
2022-11-02T08:09:35.367Z,85.15
2022-11-02T08:19:13.057Z,82.51
2022-11-02T08:28:50.847Z,79.45
2022-11-02T08:38:28.704Z,77.27
2022-11-02T08:48:06.435Z,73.83
2022-11-02T08:57:44.026Z,71.58
2022-11-02T09:07:22.144Z,69.27
2022-11-02T09:17:01.311Z,66.88
2022-11-02T09:26:39.387Z,63.47
2022-11-02T09:36:18.924Z,61.25
2022-11-02T09:45:56.385Z,61.87
2022-11-02T09:55:32.739Z,60.09
2022-11-02T10:05:09.284Z,60.91
2022-11-02T10:14:47.818Z,59.96
2022-11-02T10:24:26.175Z,58.72
2022-11-02T10:43:40.400Z,55.55
2022-11-02T10:53:41.679Z,55.73
2022-11-02T11:03:38.279Z,51.68
2022-11-02T11:22:51.118Z,47.29
2022-11-02T11:32:31.427Z,47.66
2022-11-02T11:51:05.717Z,51.99
2022-11-02T12:00:37.159Z,51.7
2022-11-02T12:10:12.691Z,48.95
2022-11-02T12:19:50.408Z,50.21
2022-11-02T12:29:28.381Z,48.28
2022-11-02T12:39:21.650Z,48.03
2022-11-02T12:49:35.792Z,45.3
2022-11-02T13:18:34.700Z,44.72
2022-11-02T13:28:13.819Z,43.98
2022-11-02T13:37:50.936Z,43.39
2022-11-02T13:47:24.134Z,43.7
2022-11-02T13:56:50.258Z,44.72
2022-11-02T14:15:59.704Z,43.71
2022-11-02T14:25:22.689Z,45.88
2022-11-02T14:34:57.672Z,47.28
2022-11-02T14:44:27.831Z,49.26
2022-11-02T14:54:02.111Z,48.25
2022-11-02T15:13:16.912Z,51.44
2022-11-02T15:22:48.427Z,53.76
2022-11-02T15:32:23.843Z,56.84
2022-11-02T15:41:59.050Z,58.85
2022-11-02T15:51:34.917Z,62.73
2022-11-02T16:01:11.464Z,67.39
2022-11-02T16:10:47.528Z,70.54
2022-11-02T16:29:59.615Z,76.14
2022-11-02T16:39:35.879Z,79.59
2022-11-02T16:49:12.260Z,82.24
2022-11-02T16:58:48.385Z,84.54
2022-11-02T17:08:24.611Z,87.16
2022-11-02T17:18:00.897Z,87.85
2022-11-02T17:27:37.767Z,89.22
2022-11-02T17:37:13.571Z,91.17
2022-11-02T17:56:26.512Z,92.66
2022-11-02T18:06:03.020Z,93.41
2022-11-02T18:15:39.647Z,94.22
2022-11-02T18:25:16.332Z,93.93
2022-11-02T18:34:52.832Z,96.38
2022-11-02T18:44:29.750Z,96.56
2022-11-02T18:54:05.773Z,98.06
2022-11-02T19:03:42.104Z,99.56
2022-11-02T19:13:18.373Z,100
2022-11-02T19:22:54.824Z,100
2022-11-02T19:32:31.316Z,100
2022-11-02T19:42:08.020Z,100
2022-11-02T19:51:44.314Z,100
2022-11-02T20:01:20.929Z,100
2022-11-02T20:20:33.220Z,100
2022-11-02T20:30:10.300Z,100
2022-11-02T20:39:46.008Z,100
2022-11-02T20:58:58.162Z,100
2022-11-02T21:18:11.740Z,100
2022-11-02T21:27:48.247Z,100
2022-11-02T21:37:25.336Z,100
2022-11-02T21:47:02.126Z,100
2022-11-02T21:56:38.381Z,100
2022-11-02T22:06:14.608Z,100
2022-11-02T22:15:51.222Z,100
2022-11-02T22:25:27.813Z,100
2022-11-02T22:35:04.323Z,100
2022-11-02T22:44:40.804Z,100
2022-11-02T22:54:17.791Z,100
2022-11-02T23:13:31.975Z,100
2022-11-02T23:23:08.682Z,100
2022-11-02T23:32:45.309Z,100
2022-11-02T23:42:22.189Z,100
2022-11-02T23:51:58.932Z,100
